createdAt,value
2018-10-07T00:01:04.859Z,144172.11
2018-10-07T00:03:33.915Z,144185.81
2018-10-07T00:06:03.167Z,144170.89
2018-10-07T00:08:32.206Z,144173.36
2018-10-07T00:11:01.293Z,144164.64
2018-10-07T00:13:30.612Z,144187.08
2018-10-07T00:16:00.146Z,144183.34
2018-10-07T00:18:29.479Z,144182.09
2018-10-07T00:20:58.868Z,144194.55
2018-10-07T00:23:27.942Z,144192.08
2018-10-07T00:25:57.154Z,144183.34
2018-10-07T00:28:26.826Z,144165.91
2018-10-07T00:30:56.207Z,144143.41
2018-10-07T00:33:25.553Z,144139.69
2018-10-07T00:35:54.994Z,144089.81
2018-10-07T00:38:24.049Z,144051.11
2018-10-07T00:40:53.343Z,144031.16
2018-10-07T00:43:22.558Z,144007.47
2018-10-07T00:45:51.896Z,143971.34
2018-10-07T00:48:20.947Z,143960.09
2018-10-07T00:50:50.368Z,143957.63
2018-10-07T00:53:19.704Z,143965.09
2018-10-07T00:55:48.830Z,143951.38
2018-10-07T00:58:18.295Z,143977.58
2018-10-07T01:00:48.028Z,143991.28
2018-10-07T01:03:17.500Z,144005.00
2018-10-07T01:05:46.789Z,144034.87
2018-10-07T01:08:16.084Z,144056.09
2018-10-07T01:10:45.599Z,144044.86
2018-10-07T01:13:14.618Z,144067.30
2018-10-07T01:15:43.768Z,144054.84
2018-10-07T01:18:12.830Z,144042.39
2018-10-07T01:20:42.307Z,144033.67
2018-10-07T01:23:11.422Z,144048.59
2018-10-07T01:25:40.444Z,144047.38
2018-10-07T01:28:09.696Z,144043.59
2018-10-07T01:30:38.684Z,144062.34
2018-10-07T01:33:07.755Z,144103.53
2018-10-07T01:35:36.850Z,144092.28
2018-10-07T01:38:05.891Z,144104.80
2018-10-07T01:40:34.915Z,144122.23
2018-10-07T01:43:04.484Z,144114.73
2018-10-07T01:45:33.532Z,144109.73
2018-10-07T01:48:02.653Z,144098.55
2018-10-07T01:50:32.114Z,144068.55
2018-10-07T01:53:01.372Z,144021.17
2018-10-07T01:55:30.421Z,144007.47
2018-10-07T01:57:59.598Z,143981.31
2018-10-07T02:00:28.648Z,143970.08
2018-10-07T02:02:57.828Z,143980.05
2018-10-07T02:05:27.388Z,143997.48
2018-10-07T02:07:56.454Z,144019.97
2018-10-07T02:10:25.506Z,144024.91
2018-10-07T02:12:54.567Z,144038.66
2018-10-07T02:15:23.608Z,144059.83
2018-10-07T02:17:52.967Z,144067.30
2018-10-07T02:20:22.066Z,144072.28
2018-10-07T02:22:51.072Z,144077.28
2018-10-07T02:25:20.101Z,144058.58
2018-10-07T02:27:49.262Z,144117.25
2018-10-07T02:30:18.287Z,144112.25
2018-10-07T02:32:47.338Z,144103.53
2018-10-07T02:35:16.394Z,144097.28
2018-10-07T02:37:45.383Z,144092.28
2018-10-07T02:40:14.584Z,144123.50
2018-10-07T02:42:44.132Z,144114.73
2018-10-07T02:45:13.301Z,144129.70
2018-10-07T02:47:42.728Z,144082.31
2018-10-07T02:50:19.350Z,144092.28
2018-10-07T02:52:51.769Z,144066.08
2018-10-07T02:55:24.364Z,144064.83
2018-10-07T02:57:54.800Z,144069.81
2018-10-07T03:00:24.099Z,144063.56
2018-10-07T03:02:53.402Z,144066.08
2018-10-07T03:05:22.435Z,144072.28
2018-10-07T03:07:51.678Z,144069.81
2018-10-07T03:10:21.047Z,144069.81
2018-10-07T03:12:50.490Z,144069.81
2018-10-07T03:15:19.813Z,144072.28
2018-10-07T03:17:48.933Z,144064.83
2018-10-07T03:20:19.025Z,144041.13
2018-10-07T03:22:48.053Z,144014.97
2018-10-07T03:25:17.505Z,144038.66
2018-10-07T03:27:46.560Z,144007.47
2018-10-07T03:30:15.671Z,143990.03
2018-10-07T03:32:45.100Z,143982.53
2018-10-07T03:35:14.160Z,144026.16
2018-10-07T03:37:43.506Z,144112.25
2018-10-07T03:40:12.987Z,144072.28
2018-10-07T03:42:42.364Z,144047.38
2018-10-07T03:45:11.590Z,144029.89
2018-10-07T03:47:40.903Z,144039.88
2018-10-07T03:50:10.336Z,144053.59
2018-10-07T03:52:39.624Z,144044.86
2018-10-07T03:55:08.646Z,144044.86
2018-10-07T03:57:38.200Z,144047.38
2018-10-07T04:00:07.271Z,144064.83
2018-10-07T04:02:36.770Z,144091.03
2018-10-07T04:05:06.171Z,144099.80
2018-10-07T04:07:35.234Z,144069.81
2018-10-07T04:10:04.295Z,144081.09
2018-10-07T04:12:33.768Z,144063.56
2018-10-07T04:15:03.227Z,144062.34
2018-10-07T04:17:32.726Z,144058.58
2018-10-07T04:20:01.848Z,144042.39
2018-10-07T04:22:30.827Z,144064.83
2018-10-07T04:25:00.007Z,144094.81
2018-10-07T04:27:29.419Z,144149.66
2018-10-07T04:29:58.934Z,144074.80
2018-10-07T04:32:28.269Z,144125.97
2018-10-07T04:34:57.377Z,144134.69
2018-10-07T04:37:26.442Z,144155.92
2018-10-07T04:39:55.869Z,144133.44
2018-10-07T04:42:24.923Z,144134.69
2018-10-07T04:44:54.044Z,144133.44
2018-10-07T04:47:23.090Z,144132.22
2018-10-07T04:49:52.216Z,144109.73
2018-10-07T04:52:21.283Z,144140.94
2018-10-07T04:54:50.349Z,144117.25
2018-10-07T04:57:19.386Z,144179.63
2018-10-07T04:59:48.662Z,144165.91
2018-10-07T05:02:17.734Z,144144.67
2018-10-07T05:04:46.855Z,144159.66
2018-10-07T05:07:16.302Z,144152.14
2018-10-07T05:09:46.140Z,144145.94
2018-10-07T05:12:16.790Z,144209.53
2018-10-07T05:14:45.756Z,144182.09
2018-10-07T05:17:16.381Z,144182.09
2018-10-07T05:19:45.655Z,144210.78
2018-10-07T05:22:14.776Z,144246.94
2018-10-07T05:24:43.810Z,144256.94
2018-10-07T05:27:13.076Z,144249.47
2018-10-07T05:29:42.237Z,144279.38
2018-10-07T05:32:11.720Z,144255.72
2018-10-07T05:34:41.078Z,144261.92
2018-10-07T05:37:10.205Z,144319.33
2018-10-07T05:39:39.259Z,144341.78
2018-10-07T05:42:08.629Z,144356.81
2018-10-07T05:44:38.061Z,144386.78
2018-10-07T05:47:07.494Z,144376.80
2018-10-07T05:49:36.620Z,144454.16
2018-10-07T05:52:05.982Z,144465.42
2018-10-07T05:54:35.654Z,144444.22
2018-10-07T05:57:04.995Z,144462.94
2018-10-07T05:59:34.132Z,144439.22
2018-10-07T06:02:05.333Z,144505.41
2018-10-07T06:04:48.539Z,144544.06
2018-10-07T06:07:17.580Z,144575.33
2018-10-07T06:09:46.809Z,144581.53
2018-10-07T06:12:15.921Z,144567.80
2018-10-07T06:14:55.830Z,144630.31
2018-10-07T06:17:24.778Z,144655.31
2018-10-07T06:19:53.858Z,144647.78
2018-10-07T06:22:23.804Z,144644.05
2018-10-07T06:24:53.525Z,144735.28
2018-10-07T06:27:22.663Z,144649.05
2018-10-07T06:29:52.113Z,144601.58
2018-10-07T06:32:21.879Z,144627.84
2018-10-07T06:34:51.517Z,144617.84
2018-10-07T06:37:20.603Z,144604.11
2018-10-07T06:39:49.746Z,144599.09
2018-10-07T06:42:18.863Z,144601.58
2018-10-07T06:44:48.476Z,144657.78
2018-10-07T06:47:17.833Z,144661.53
2018-10-07T06:49:47.364Z,144649.05
2018-10-07T06:52:16.823Z,144767.77
2018-10-07T06:54:45.883Z,144752.75
2018-10-07T06:57:15.166Z,144844.06
2018-10-07T06:59:44.610Z,144804.00
2018-10-07T07:02:13.883Z,144767.77
2018-10-07T07:04:42.861Z,144889.05
2018-10-07T07:07:12.322Z,144981.61
2018-10-07T07:09:41.387Z,144954.11
2018-10-07T07:12:10.444Z,145044.16
2018-10-07T07:14:39.560Z,145097.97
2018-10-07T07:17:08.630Z,145067.94
2018-10-07T07:19:37.803Z,145268.22
2018-10-07T07:22:06.996Z,145269.50
2018-10-07T07:24:36.266Z,145292.02
2018-10-07T07:27:05.380Z,145287.00
2018-10-07T07:29:34.719Z,145204.38
2018-10-07T07:32:04.100Z,145228.14
2018-10-07T07:34:33.546Z,145345.87
2018-10-07T07:37:02.985Z,145453.56
2018-10-07T07:39:32.147Z,145422.27
2018-10-07T07:42:01.366Z,145297.03
2018-10-07T07:44:30.795Z,145409.72
2018-10-07T07:46:59.882Z,145489.92
2018-10-07T07:49:28.947Z,145685.47
2018-10-07T07:51:58.260Z,145701.78
2018-10-07T07:54:27.361Z,145446.06
2018-10-07T07:56:56.760Z,145636.52
2018-10-07T07:59:25.831Z,145789.53
2018-10-07T08:01:54.899Z,145897.42
2018-10-07T08:04:24.247Z,145873.59
2018-10-07T08:06:53.563Z,145596.44
2018-10-07T08:09:22.593Z,145697.98
2018-10-07T08:11:51.866Z,145800.83
2018-10-07T08:14:21.252Z,145689.22
2018-10-07T08:16:50.324Z,145715.58
2018-10-07T08:19:19.411Z,145764.44
2018-10-07T08:21:48.580Z,145765.70
2018-10-07T08:24:17.689Z,145632.78
2018-10-07T08:26:46.711Z,145517.47
2018-10-07T08:29:15.761Z,145661.61
2018-10-07T08:31:44.984Z,145667.94
2018-10-07T08:34:14.353Z,145520.00
2018-10-07T08:36:43.439Z,145565.09
2018-10-07T08:39:12.531Z,145590.17
2018-10-07T08:41:41.570Z,145407.23
2018-10-07T08:44:10.959Z,145567.63
2018-10-07T08:46:40.513Z,145672.95
2018-10-07T08:49:09.927Z,145536.31
2018-10-07T08:51:39.036Z,145459.84
2018-10-07T08:54:08.426Z,145570.09
2018-10-07T08:56:37.511Z,145665.36
2018-10-07T08:59:07.588Z,145768.23
2018-10-07T09:01:36.703Z,145746.91
2018-10-07T09:04:06.062Z,145665.36
2018-10-07T09:06:35.536Z,145657.86
2018-10-07T09:09:06.623Z,145748.17
2018-10-07T09:11:35.966Z,146019.14
2018-10-07T09:14:05.303Z,145947.62
2018-10-07T09:16:34.475Z,145804.58
2018-10-07T09:19:03.866Z,145861.06
2018-10-07T09:21:33.311Z,145753.19
2018-10-07T09:24:02.404Z,145834.70
2018-10-07T09:26:31.434Z,146002.81
2018-10-07T09:29:00.548Z,146073.12
2018-10-07T09:31:30.658Z,145913.75
2018-10-07T09:34:00.387Z,145711.78
2018-10-07T09:36:29.827Z,145856.00
2018-10-07T09:38:59.934Z,145888.66
2018-10-07T09:41:29.339Z,145887.38
2018-10-07T09:43:58.873Z,145840.94
2018-10-07T09:46:28.475Z,145843.47
2018-10-07T09:48:58.384Z,145859.80
2018-10-07T09:51:28.496Z,145803.31
2018-10-07T09:53:58.050Z,145785.78
2018-10-07T09:56:27.691Z,145948.84
2018-10-07T09:58:57.253Z,145856.00
2018-10-07T10:01:26.811Z,145775.73
2018-10-07T10:03:56.294Z,145725.61
2018-10-07T10:06:25.766Z,145466.08
2018-10-07T10:08:55.250Z,145708.03
2018-10-07T10:11:24.926Z,145675.44
2018-10-07T10:13:54.340Z,145650.31
2018-10-07T10:17:30.047Z,145704.28
2018-10-07T10:20:06.925Z,145956.41
2018-10-07T10:22:41.872Z,145906.19
2018-10-07T10:26:21.055Z,145795.81
2018-10-07T10:29:07.363Z,145814.63
2018-10-07T10:31:56.402Z,145696.77
2018-10-07T10:36:44.267Z,145896.20
2018-10-07T10:39:22.521Z,145856.00
2018-10-07T10:42:56.184Z,145956.41
2018-10-07T10:45:48.622Z,145961.42
2018-10-07T10:48:30.528Z,145577.66
2018-10-07T10:51:09.404Z,145780.75
2018-10-07T10:53:44.325Z,145852.23
2018-10-07T10:56:54.670Z,145854.72
2018-10-07T10:59:42.767Z,145931.30
2018-10-07T11:02:20.975Z,145925.00
2018-10-07T11:04:59.796Z,145708.03
2018-10-07T11:07:34.736Z,145871.09
2018-10-07T11:12:18.608Z,145719.33
2018-10-07T11:15:03.303Z,145657.86
2018-10-07T11:17:45.427Z,145773.20
2018-10-07T11:20:22.144Z,145731.84
2018-10-07T11:23:01.599Z,145682.98
2018-10-07T11:25:41.948Z,145660.34
2018-10-07T11:28:34.281Z,145422.27
2018-10-07T11:31:14.112Z,145528.77
2018-10-07T11:34:08.074Z,145555.11
2018-10-07T11:36:47.064Z,145610.22
2018-10-07T11:39:28.699Z,145692.97
2018-10-07T11:42:04.183Z,145690.48
2018-10-07T11:44:53.871Z,145708.03
2018-10-07T11:49:34.235Z,145780.75
2018-10-07T11:53:11.503Z,145798.30
2018-10-07T11:55:40.570Z,145694.23
2018-10-07T11:58:09.727Z,145672.95
2018-10-07T12:00:38.822Z,145844.69
2018-10-07T12:03:07.992Z,145719.33
2018-10-07T12:05:36.978Z,145619.00
2018-10-07T12:08:06.302Z,145799.56
2018-10-07T12:10:35.723Z,145835.91
2018-10-07T12:13:05.159Z,145703.00
2018-10-07T12:15:34.993Z,145555.11
2018-10-07T12:18:04.094Z,145682.98
2018-10-07T12:20:33.116Z,145622.73
2018-10-07T12:23:02.264Z,145512.50
2018-10-07T12:25:31.310Z,145774.47
2018-10-07T12:28:00.364Z,145670.42
2018-10-07T12:30:29.486Z,145830.91
2018-10-07T12:32:58.610Z,145996.53
2018-10-07T12:35:27.707Z,145723.08
2018-10-07T12:37:56.718Z,145770.72
2018-10-07T12:40:25.837Z,145708.03
2018-10-07T12:42:55.223Z,145718.06
2018-10-07T12:45:24.385Z,145630.30
2018-10-07T12:47:53.455Z,145640.31
2018-10-07T12:50:22.716Z,145716.78
2018-10-07T12:52:52.522Z,145690.48
2018-10-07T12:55:21.919Z,145764.44
2018-10-07T12:57:51.092Z,145738.12
2018-10-07T13:00:20.141Z,145775.73
2018-10-07T13:02:49.398Z,145749.44
2018-10-07T13:05:18.589Z,145700.53
2018-10-07T13:07:47.689Z,145690.48
2018-10-07T13:10:16.736Z,145716.78
2018-10-07T13:12:45.785Z,145650.31
2018-10-07T13:15:14.840Z,145709.30
2018-10-07T13:17:43.968Z,145377.16
2018-10-07T13:20:13.030Z,145322.08
2018-10-07T13:22:42.087Z,145345.87
2018-10-07T13:25:11.314Z,145451.08
2018-10-07T13:27:40.480Z,145338.33
2018-10-07T13:30:09.629Z,145359.64
2018-10-07T13:32:39.108Z,145364.66
2018-10-07T13:35:08.245Z,145397.20
2018-10-07T13:37:37.345Z,145426.02
2018-10-07T13:40:06.878Z,145537.53
2018-10-07T13:42:35.881Z,145507.50
2018-10-07T13:45:05.033Z,145481.16
2018-10-07T13:47:34.072Z,145414.72
2018-10-07T13:50:03.109Z,145446.06
2018-10-07T13:52:32.270Z,145375.89
2018-10-07T13:55:01.425Z,145403.48
2018-10-07T13:57:30.461Z,145429.77
2018-10-07T13:59:59.561Z,145473.66
2018-10-07T14:02:28.953Z,145459.84
2018-10-07T14:04:58.381Z,145360.91
2018-10-07T14:07:27.419Z,145298.28
2018-10-07T14:09:56.466Z,145468.66
2018-10-07T14:12:25.550Z,145496.20
2018-10-07T14:14:54.641Z,145590.17
2018-10-07T14:17:23.761Z,145527.50
2018-10-07T14:19:52.917Z,145556.33
2018-10-07T14:22:22.022Z,145664.14
2018-10-07T14:24:51.070Z,145652.84
2018-10-07T14:27:20.240Z,145541.28
2018-10-07T14:29:49.340Z,145476.16
2018-10-07T14:32:18.539Z,145407.23
2018-10-07T14:34:47.823Z,145348.34
2018-10-07T14:37:17.184Z,145404.70
2018-10-07T14:39:46.372Z,145349.63
2018-10-07T14:42:16.032Z,145456.05
2018-10-07T14:44:45.122Z,145313.33
2018-10-07T14:47:14.296Z,145427.28
2018-10-07T14:49:43.402Z,145332.09
2018-10-07T14:52:12.556Z,145333.31
2018-10-07T14:54:41.702Z,145405.97
2018-10-07T14:57:10.865Z,145282.00
2018-10-07T14:59:39.940Z,145343.34
2018-10-07T15:02:08.995Z,145352.09
2018-10-07T15:04:38.142Z,145352.09
2018-10-07T15:07:07.513Z,145304.52
2018-10-07T15:09:36.785Z,145443.53
2018-10-07T15:12:06.130Z,145338.33
2018-10-07T15:14:35.243Z,145464.84
2018-10-07T15:17:04.589Z,145598.92
2018-10-07T15:19:33.617Z,145474.87
2018-10-07T15:22:02.672Z,145498.69
2018-10-07T15:24:32.001Z,145700.53
2018-10-07T15:27:01.050Z,145508.72
2018-10-07T15:29:30.202Z,145527.50
2018-10-07T15:31:59.206Z,145546.30
2018-10-07T15:34:28.298Z,145407.23
2018-10-07T15:36:57.386Z,145283.25
2018-10-07T15:39:26.494Z,145287.00
2018-10-07T15:41:55.983Z,145295.75
2018-10-07T15:44:25.032Z,145302.03
2018-10-07T15:47:00.158Z,145164.30
2018-10-07T15:49:29.204Z,145131.77
2018-10-07T15:51:58.281Z,145081.73
2018-10-07T15:54:27.373Z,145029.14
2018-10-07T15:56:56.447Z,145057.97
2018-10-07T15:59:25.795Z,145011.59
2018-10-07T16:01:54.991Z,144995.36
2018-10-07T16:04:24.063Z,144974.08
2018-10-07T16:06:53.094Z,145015.39
2018-10-07T16:09:22.185Z,145057.97
2018-10-07T16:11:51.499Z,144936.56
2018-10-07T16:14:20.931Z,144932.83
2018-10-07T16:16:50.230Z,144951.58
2018-10-07T16:19:19.396Z,144890.31
2018-10-07T16:21:48.578Z,144860.28
2018-10-07T16:24:17.633Z,144926.56
2018-10-07T16:26:46.761Z,144949.09
2018-10-07T16:29:15.893Z,144919.08
2018-10-07T16:31:45.000Z,144962.86
2018-10-07T16:34:14.110Z,144945.31
2018-10-07T16:36:43.253Z,144959.11
2018-10-07T16:39:12.350Z,144939.09
2018-10-07T16:41:41.363Z,144889.05
2018-10-07T16:44:10.450Z,144816.53
2018-10-07T16:46:39.499Z,144854.06
2018-10-07T16:49:08.957Z,144824.00
2018-10-07T16:51:38.294Z,144836.53
2018-10-07T16:54:07.448Z,144852.81
2018-10-07T16:56:36.685Z,144821.53
2018-10-07T16:59:05.850Z,144756.50
2018-10-07T17:01:34.930Z,144705.27
2018-10-07T17:04:04.092Z,144662.78
2018-10-07T17:06:33.176Z,144674.05
2018-10-07T17:09:02.304Z,144657.78
2018-10-07T17:11:31.409Z,144664.05
2018-10-07T17:14:00.482Z,144697.78
2018-10-07T17:16:29.588Z,144639.05
2018-10-07T17:18:58.751Z,144616.58
2018-10-07T17:21:27.807Z,144616.58
2018-10-07T17:23:56.947Z,144685.27
2018-10-07T17:26:26.066Z,144621.58
2018-10-07T17:28:55.381Z,144574.06
2018-10-07T17:31:24.439Z,144609.09
2018-10-07T17:33:53.564Z,144727.75
2018-10-07T17:36:22.707Z,144615.31
2018-10-07T17:38:51.754Z,144617.84
2018-10-07T17:41:21.297Z,144551.59
2018-10-07T17:43:50.433Z,144671.53
2018-10-07T17:46:19.511Z,144545.33
2018-10-07T17:48:48.731Z,144475.41
2018-10-07T17:51:17.675Z,144451.69
2018-10-07T17:53:47.059Z,144454.16
2018-10-07T17:56:16.187Z,144542.86
2018-10-07T17:58:45.251Z,144590.31
2018-10-07T18:01:14.380Z,144475.41
2018-10-07T18:03:43.557Z,144441.69
2018-10-07T18:06:12.621Z,144410.50
2018-10-07T18:08:41.619Z,144361.81
2018-10-07T18:11:10.723Z,144398.00
2018-10-07T18:13:39.846Z,144474.16
2018-10-07T18:16:09.004Z,144536.59
2018-10-07T18:18:38.101Z,144419.23
2018-10-07T18:21:07.219Z,144379.28
2018-10-07T18:23:36.617Z,144340.56
2018-10-07T18:26:06.281Z,144353.08
2018-10-07T18:28:35.377Z,144281.91
2018-10-07T18:31:04.561Z,144244.47
2018-10-07T18:33:33.666Z,144194.55
2018-10-07T18:36:02.731Z,144184.61
2018-10-07T18:38:31.796Z,144187.08
2018-10-07T18:41:00.864Z,144236.95
2018-10-07T18:43:29.978Z,144254.47
2018-10-07T18:45:59.100Z,144269.44
2018-10-07T18:48:28.218Z,144314.34
2018-10-07T18:50:57.302Z,144240.73
2018-10-07T18:53:26.572Z,144258.19
2018-10-07T18:55:55.635Z,144225.75
2018-10-07T18:58:24.805Z,144199.53
2018-10-07T19:00:53.897Z,144167.11
2018-10-07T19:03:22.937Z,144133.44
2018-10-07T19:05:52.056Z,144099.80
2018-10-07T19:08:21.102Z,144101.02
2018-10-07T19:10:50.312Z,144092.28
2018-10-07T19:13:19.447Z,144102.28
2018-10-07T19:15:49.384Z,144154.66
2018-10-07T19:18:18.756Z,144139.69
2018-10-07T19:20:48.042Z,144152.14
2018-10-07T19:23:17.082Z,144170.89
2018-10-07T19:25:46.167Z,144129.70
2018-10-07T19:28:15.200Z,144087.30
2018-10-07T19:30:44.796Z,144094.81
2018-10-07T19:33:13.889Z,144106.00
2018-10-07T19:35:43.048Z,144094.81
2018-10-07T19:38:12.144Z,144104.80
2018-10-07T19:40:41.239Z,144122.23
2018-10-07T19:43:10.523Z,144250.72
2018-10-07T19:45:39.988Z,144172.11
2018-10-07T19:48:09.131Z,144127.23
2018-10-07T19:50:38.244Z,144124.72
2018-10-07T19:53:07.465Z,144150.92
2018-10-07T19:55:36.508Z,144134.69
2018-10-07T19:58:05.536Z,144149.66
2018-10-07T20:00:34.616Z,144164.64
2018-10-07T20:03:03.719Z,144140.94
2018-10-07T20:05:32.780Z,144124.72
2018-10-07T20:08:01.835Z,144135.95
2018-10-07T20:10:30.864Z,144194.55
2018-10-07T20:13:00.004Z,144114.73
2018-10-07T20:15:29.028Z,144115.98
2018-10-07T20:17:58.299Z,144117.25
2018-10-07T20:20:27.378Z,144143.41
2018-10-07T20:22:56.468Z,144108.53
2018-10-07T20:25:25.536Z,144041.13
2018-10-07T20:27:54.630Z,144017.44
2018-10-07T20:30:24.071Z,143988.77
2018-10-07T20:32:53.178Z,143937.67
2018-10-07T20:35:22.282Z,143909.00
2018-10-07T20:37:51.383Z,143865.39
2018-10-07T20:40:21.001Z,143836.72
2018-10-07T20:42:49.983Z,143816.83
2018-10-07T20:45:19.059Z,143795.62
2018-10-07T20:47:48.207Z,143766.94
2018-10-07T20:50:17.216Z,143765.72
2018-10-07T20:52:46.324Z,143753.23
2018-10-07T20:55:15.356Z,143720.86
2018-10-07T20:57:44.513Z,143694.72
2018-10-07T21:00:13.664Z,143684.77
2018-10-07T21:02:43.068Z,143663.56
2018-10-07T21:05:12.193Z,143644.89
2018-10-07T21:07:41.326Z,143633.72
2018-10-07T21:10:10.399Z,143613.78
2018-10-07T21:12:39.835Z,143586.41
2018-10-07T21:15:09.231Z,143565.23
2018-10-07T21:17:38.219Z,143555.27
2018-10-07T21:20:07.465Z,143551.53
2018-10-07T21:22:36.642Z,143535.34
2018-10-07T21:25:05.859Z,143531.63
2018-10-07T21:27:34.996Z,143522.92
2018-10-07T21:30:04.048Z,143501.78
2018-10-07T21:32:33.070Z,143493.03
2018-10-07T21:35:02.168Z,143520.45
2018-10-07T21:37:31.267Z,143500.53
2018-10-07T21:40:00.336Z,143490.56
2018-10-07T21:42:29.919Z,143461.89
2018-10-07T21:44:59.042Z,143440.78
2018-10-07T21:47:28.405Z,143444.50
2018-10-07T21:49:57.652Z,143434.53
2018-10-07T21:52:26.773Z,143471.86
2018-10-07T21:54:55.879Z,143456.91
2018-10-07T21:57:25.000Z,143441.97
2018-10-07T21:59:54.065Z,143427.05
2018-10-07T22:02:23.544Z,143459.44
2018-10-07T22:04:53.172Z,143475.58
2018-10-07T22:07:22.528Z,143483.08
2018-10-07T22:09:51.723Z,143479.30
2018-10-07T22:12:21.280Z,143499.27
2018-10-07T22:14:50.812Z,143495.55
2018-10-07T22:17:20.187Z,143504.25
2018-10-07T22:19:49.478Z,143506.77
2018-10-07T22:22:18.732Z,143499.27
2018-10-07T22:24:48.243Z,143493.03
2018-10-07T22:27:17.654Z,143483.08
2018-10-07T22:29:46.976Z,143475.58
2018-10-07T22:32:16.335Z,143466.88
2018-10-07T22:34:45.806Z,143456.91
2018-10-07T22:37:15.250Z,143474.31
2018-10-07T22:39:44.604Z,143481.81
2018-10-07T22:42:13.671Z,143490.56
2018-10-07T22:44:42.983Z,143499.27
2018-10-07T22:47:12.107Z,143526.64
2018-10-07T22:49:41.231Z,143540.31
2018-10-07T22:52:10.548Z,143539.13
2018-10-07T22:54:39.593Z,143530.41
2018-10-07T22:57:09.243Z,143526.64
2018-10-07T22:59:38.687Z,143512.95
2018-10-07T23:02:08.056Z,143491.81
2018-10-07T23:04:37.409Z,143484.28
2018-10-07T23:07:06.398Z,143475.58
2018-10-07T23:09:35.887Z,143471.86
2018-10-07T23:12:05.411Z,143448.22
2018-10-07T23:14:34.922Z,143449.47
2018-10-07T23:17:04.286Z,143453.19
2018-10-07T23:19:33.715Z,143445.75
2018-10-07T23:22:02.981Z,143430.81
2018-10-07T23:24:32.355Z,143419.59
2018-10-07T23:27:01.663Z,143389.72
2018-10-07T23:29:31.478Z,143367.34
2018-10-07T23:32:00.836Z,143349.95
2018-10-07T23:34:30.074Z,143335.02
2018-10-07T23:36:59.160Z,143310.13
2018-10-07T23:39:28.248Z,143305.16
2018-10-07T23:41:57.544Z,143270.38
2018-10-07T23:44:27.248Z,143270.38
2018-10-07T23:46:56.571Z,143265.39
2018-10-07T23:49:25.604Z,143243.03
2018-10-07T23:51:54.961Z,143221.86
2018-10-07T23:54:24.066Z,143210.72
2018-10-07T23:56:53.174Z,143184.58
2018-10-07T23:59:22.373Z,143185.83
